الصفحة الرئيسية
METAR-TAF:

METAR-TAF

مطار :

مطار جبل طارق

جبل طارق, جبل طارق

دائرة عرض: 36-09N, خط طول: 005-21W, ارتفاع: 5 متر

مراقبة الطقس الحالي

تاريخ ووقت الإصدار 40 دقيقة قبل الساعة 05:50UTC
ريح 6 عقدة من الجنوب الغربي
درجة الحرارة 20°درجة مئوية
الرطوبة 83%
ضغط 1019 hPa
الرؤية 10 كم أو أكثر
غيوم قليلة على ارتفاع 2300 قدم

METAR: LXGB 160550Z 23006KT 9999 FEW023 20/17 Q1019 NOSIG

زمن: 08:30 (06:30 UTC)

توقعات

تاريخ ووقت الإصدار 1ساعة و 34 دقيقة قبل الساعة 04:56UTC
التوقعات صالحة من16 الساعة 06 UTC إلى 16 الساعة 15 UTC
ريح 12 عقدة من الغرب/الجنوب الغربي
الرؤية 10 كم أو أكثر
غيوم قليلة على ارتفاع 2200 قدم
نظرية الاحتمالات 40% :
مؤقت
من 16 الساعة 09 UTC إلى 16 الساعة 15 UTC
ريح 14 عقدة من الجنوب/الجنوب الغربي

TAF: LXGB 160456Z 1606/1615 25012KT 9999 FEW022 PROB40 TEMPO 1609/1615 20014KT 520001

أرصاد الطقس والتوقعات من أكثر من 4000 مطار (تقارير الطقس للمطار METAR والتنبؤ بالطقس بالمطارTAF).

المحطات المتاحة هي النقط الصفراء والحمراء على الخريطة.

حرك المؤشر فوق النقطة لمعرفة اسم المحطة.

ثم انقر لمعرفة أرصاد وتوقعات الطقس.

لتغيير الخارطة: اضغط على الأزرار الخضراء مع رمز الصليب الأسود للتكبير. على الزر الأخضر مع شرطة للتصغير، أو على الأسهم الخضراء للخرائط المجاورة.


METAR-TAF: